Austinville, Virginia
Current Conditions -  °F | °C
As of 12:55 PM on Wednesday 28 Jan 2015 (Local Time) from KHLX Reporting Station
Clear Clear  
Wind Chill: 24°   Ceiling: Unl
Heat Index: 32°   Visibility: 10mi
Dew Point: 17°   Wind: 10mph
Humidity: 53%   Direction: 320°NW
Pressure: 30.17"   Gusts: 16mph
Location:  36.85°N, 80.91°W
Report Text: KHLX 281755Z AUTO 32009G14KT 10SM CLR 00/M09 A3017 RMK AO2 T00001086 10000 21081
Loading
Personal Weather Stations






























Interactive Weather Map New forecast layout! Learn more

10-Day Weather Forecast

Advertisements
Track Severe Weather on mobile